Aberdeen, New Jersey
Current Conditions -  °F | °C
As of 3:15 PM on Thursday 18 Dec 2014 (Local Time) from KLDJ Reporting Station
Broken Clouds Broken Clouds  
Wind Chill: 38°   Ceiling: 4200
Heat Index: 45°   Visibility: 10mi
Dew Point: 28°   Wind: 16mph
Humidity: 51%   Direction: 310°NW
Pressure: 29.98"   Gusts: 24mph
Location:  40.4118°N, 74.2499°W
Report Text: KLDJ 182015Z AUTO 31014G21KT 10SM BKN042 07/M02 A2998 RMK AO2 T00711025
Loading
Personal Weather Stations






























Interactive Weather Map New forecast layout! Learn more

10-Day Weather Forecast

Advertisements
Track Severe Weather on mobile